»·PEaware :: N427LJ KSNA-KCRQ

N427LJ :: KSNA-KCRQ

FLIGHT INFORMATION

Flight Status: Arrived
Operator: Privately registered:
United States
More flights under this callsign
Pilot: Anonymous 27948 (27948)
Aircraft: CESSNA 172 SKYHAWK
(C172)
More flights by this aircraft type
Origin: KSNA John Wayne-Orange Co
United States
Destination: KCRQ McClellan-Palomar
United States
More flights between these airports :: More routes between these airports
Route: V23 OCN
File this flight plan on PilotEdge
Remarks: I-2 RATING
Altitude:
(Current/Filed)
5,000ft
Speed:
(Current/Filed)
120kts
Departed: 20-Jun-20 02:45 PM
Arrived: 20-Jun-20 03:28 PM
Distance/Time
Traveled:
44nm/0:43
Distance/Time
To Go:
Arrived

Flight Plot

Page will automatically refresh every two minutes.


Map Options




Map Legend


Flown Route
Filed Route
Departure Airport
Arrival Airport
Navaid (VOR, NDB)
Fix

Horizontal Profiles

Position Reports

Time Latitude Longitude Heading Altitude Ground
Speed
20-Jun-20 14:32 33.669224 -117.870043 41 60ft 0kts
20-Jun-20 14:32 33.669224 -117.870043 41 60ft 0kts
20-Jun-20 14:34 33.669224 -117.870043 41 60ft 0kts
20-Jun-20 14:34 33.669224 -117.870043 41 60ft 0kts
20-Jun-20 14:35 33.669224 -117.870043 41 60ft 0kts
20-Jun-20 14:36 33.669234 -117.870034 37 60ft 1kts
20-Jun-20 14:37 33.670770 -117.869207 37 60ft 13kts
20-Jun-20 14:38 33.673595 -117.867095 339 60ft 3kts
20-Jun-20 14:39 33.675021 -117.866508 27 60ft 14kts
20-Jun-20 14:40 33.677397 -117.864998 28 60ft 5kts
20-Jun-20 14:41 33.679404 -117.863721 27 60ft 8kts
20-Jun-20 14:42 33.679920 -117.863567 315 60ft 0kts
20-Jun-20 14:43 33.679920 -117.863567 315 60ft 0kts
20-Jun-20 14:44 33.670610 -117.870710 210 440ft 76kts
20-Jun-20 14:45 33.658367 -117.887403 289 1512ft 75kts
20-Jun-20 14:46 33.641074 -117.897477 186 2464ft 78kts
20-Jun-20 14:47 33.619309 -117.900519 186 3404ft 80kts
20-Jun-20 14:48 33.597133 -117.903621 186 4289ft 81kts
20-Jun-20 14:49 33.574132 -117.906847 186 4964ft 96kts
20-Jun-20 14:50 33.543450 -117.911259 186 4963ft 116kts
20-Jun-20 14:51 33.514927 -117.904493 109 4962ft 115kts
20-Jun-20 14:52 33.507762 -117.866750 102 4963ft 116kts
20-Jun-20 14:53 33.501022 -117.829227 102 4954ft 117kts
20-Jun-20 14:54 33.494180 -117.791115 101 4954ft 116kts
20-Jun-20 14:55 33.487379 -117.753196 101 4954ft 116kts
20-Jun-20 14:56 33.482532 -117.714832 98 4954ft 116kts
20-Jun-20 14:57 33.466235 -117.682489 131 4954ft 116kts
20-Jun-20 14:58 33.443658 -117.654689 135 4954ft 116kts
20-Jun-20 14:59 33.420447 -117.627456 135 4954ft 116kts
20-Jun-20 15:00 33.397343 -117.600436 135 4954ft 116kts
20-Jun-20 15:01 33.374175 -117.573366 135 4954ft 116kts
20-Jun-20 15:02 33.350939 -117.546237 135 4954ft 116kts
20-Jun-20 15:03 33.329461 -117.521181 135 4954ft 116kts
20-Jun-20 15:04 33.304345 -117.491894 135 4954ft 116kts
20-Jun-20 15:05 33.281082 -117.464790 135 4954ft 116kts
20-Jun-20 15:06 33.257933 -117.437840 135 4954ft 116kts
20-Jun-20 15:07 33.238594 -117.408159 94 4954ft 116kts
20-Jun-20 15:08 33.237523 -117.369493 91 4954ft 116kts
20-Jun-20 15:09 33.236616 -117.330746 91 4954ft 116kts
20-Jun-20 15:10 33.235717 -117.292094 91 4954ft 116kts
20-Jun-20 15:11 33.234820 -117.253310 91 4954ft 116kts
20-Jun-20 15:12 33.233929 -117.214611 91 4954ft 116kts
20-Jun-20 15:13 33.233038 -117.175708 91 4954ft 116kts
20-Jun-20 15:14 33.232160 -117.137121 91 4954ft 116kts
20-Jun-20 15:15 33.226515 -117.100330 121 4796ft 109kts
20-Jun-20 15:16 33.210317 -117.069167 121 4017ft 110kts
20-Jun-20 15:17 33.195208 -117.040099 121 3954ft 103kts
20-Jun-20 15:18 33.174054 -117.026782 226 3756ft 108kts
20-Jun-20 15:19 33.164696 -117.057515 256 3554ft 93kts
20-Jun-20 15:20 33.159116 -117.088845 258 3544ft 98kts
20-Jun-20 15:21 33.153995 -117.120535 259 3052ft 96kts
20-Jun-20 15:22 33.148946 -117.151963 259 2516ft 97kts
20-Jun-20 15:23 33.143931 -117.183108 259 1963ft 94kts
20-Jun-20 15:24 33.139000 -117.213663 259 1421ft 94kts
20-Jun-20 15:25 33.134123 -117.243839 259 897ft 84kts
20-Jun-20 15:26 33.129904 -117.269719 259 413ft 72kts
20-Jun-20 15:27 33.127542 -117.279939 224 335ft 0kts
20-Jun-20 15:28 33.126986 -117.279423 89 335ft 7kts

Navigation Log

Ident Type
Flight plan parsing failed, navigation log unavailable